Time;durP1;ratioP1;P1;durP2;ratioP2;P2;SDS_P1;SDS_P2;PMS_P1;PMS_P2;Temp;Humidity;BMP_temperature;BMP_pressure;BME280_temperature;BME280_humidity;BME280_pressure;Samples;Min_cycle;Max_cycle;Signal;HPM_P1;HPM_P2
2022/11/21 00:00:53;;;;;;;32.92;13.25;;;;;;;;;;5018298;28;20022;-79
2022/11/21 00:03:19;;;;;;;31.98;12.38;;;;;;;;;;5017942;28;20495;-79
2022/11/21 00:05:46;;;;;;;35.92;13.30;;;;;;;;;;5000374;28;20029;-78
2022/11/21 00:08:14;;;;;;;31.85;12.85;;;;;;;;;;4999397;28;20372;-80
2022/11/21 00:10:39;;;;;;;32.08;12.65;;;;;;;;;;4999812;28;20466;-79
2022/11/21 00:13:06;;;;;;;31.70;13.50;;;;;;;;;;4999943;28;20054;-78
2022/11/21 00:15:32;;;;;;;34.45;14.50;;;;;;;;;;4999827;28;20435;-79
2022/11/21 00:18:01;;;;;;;33.97;13.75;;;;;;;;;;5017429;28;20022;-79
2022/11/21 00:20:26;;;;;;;38.42;14.45;;;;;;;;;;4999433;28;20021;-80
2022/11/21 00:22:52;;;;;;;35.42;13.80;;;;;;;;;;4999547;28;20041;-81
2022/11/21 00:25:17;;;;;;;34.58;14.35;;;;;;;;;;5016920;28;20028;-79
2022/11/21 00:27:43;;;;;;;33.85;13.90;;;;;;;;;;5017411;28;20105;-80
2022/11/21 00:30:09;;;;;;;34.45;14.30;;;;;;;;;;4998996;28;20116;-79
2022/11/21 00:32:35;;;;;;;35.72;13.88;;;;;;;;;;5015121;28;20498;-79
2022/11/21 00:35:00;;;;;;;31.85;14.13;;;;;;;;;;4997786;28;20140;-80
2022/11/21 00:37:25;;;;;;;32.55;12.98;;;;;;;;;;5015361;28;20026;-80
2022/11/21 00:39:51;;;;;;;30.23;13.30;;;;;;;;;;5015220;28;20053;-79
2022/11/21 00:42:16;;;;;;;33.53;13.23;;;;;;;;;;5015914;28;20042;-81
2022/11/21 00:44:41;;;;;;;33.25;13.95;;;;;;;;;;5017172;28;20021;-80
2022/11/21 00:47:07;;;;;;;32.70;13.27;;;;;;;;;;5016710;28;20075;-80
2022/11/21 00:49:32;;;;;;;29.80;12.70;;;;;;;;;;5017224;28;20084;-81
2022/11/21 00:51:57;;;;;;;31.00;12.68;;;;;;;;;;4999055;28;20064;-79
2022/11/21 00:54:23;;;;;;;35.83;13.55;;;;;;;;;;5016862;28;20029;-80
2022/11/21 00:56:48;;;;;;;34.45;13.23;;;;;;;;;;5017113;28;20056;-81
2022/11/21 00:59:13;;;;;;;32.95;13.25;;;;;;;;;;5017169;28;20040;-79
2022/11/21 01:01:38;;;;;;;33.58;13.93;;;;;;;;;;5016949;28;20033;-78
2022/11/21 01:04:04;;;;;;;29.35;12.70;;;;;;;;;;5017110;28;20034;-80
2022/11/21 01:06:29;;;;;;;30.60;11.93;;;;;;;;;;4997915;28;20025;-80
2022/11/21 01:08:55;;;;;;;31.98;12.73;;;;;;;;;;4997551;28;20021;-79
2022/11/21 01:11:20;;;;;;;31.17;12.38;;;;;;;;;;5015226;28;20022;-79
2022/11/21 01:13:47;;;;;;;27.67;12.63;;;;;;;;;;5015535;28;20029;-78
2022/11/21 01:16:15;;;;;;;28.80;12.45;;;;;;;;;;4999185;28;20030;-77
2022/11/21 01:18:41;;;;;;;29.08;12.32;;;;;;;;;;5016663;28;20049;-79
2022/11/21 01:21:15;;;;;;;30.20;12.00;;;;;;;;;;4999862;28;20398;-79
2022/11/21 01:23:41;;;;;;;26.73;12.27;;;;;;;;;;4999349;28;20040;-79
2022/11/21 01:26:18;;;;;;;28.70;10.68;;;;;;;;;;4999126;28;20109;-80
2022/11/21 01:28:43;;;;;;;30.40;12.00;;;;;;;;;;5016280;28;20077;-80
2022/11/21 01:31:30;;;;;;;30.10;11.35;;;;;;;;;;5016269;28;20104;-79
2022/11/21 01:33:57;;;;;;;23.60;10.65;;;;;;;;;;5016827;28;20062;-80
2022/11/21 01:36:26;;;;;;;28.88;11.68;;;;;;;;;;4998613;28;20025;-80
2022/11/21 01:38:54;;;;;;;25.38;9.95;;;;;;;;;;5016397;28;20028;-79
2022/11/21 01:41:23;;;;;;;23.52;10.30;;;;;;;;;;5016186;28;20029;-80
2022/11/21 01:43:49;;;;;;;23.42;9.65;;;;;;;;;;5015975;28;20084;-79
2022/11/21 01:46:17;;;;;;;20.27;8.55;;;;;;;;;;4998684;28;20041;-80
2022/11/21 01:49:01;;;;;;;22.20;8.02;;;;;;;;;;5016908;28;20035;-80
2022/11/21 01:51:35;;;;;;;20.05;8.50;;;;;;;;;;5015665;28;20029;-79
2022/11/21 01:54:06;;;;;;;20.27;8.70;;;;;;;;;;5017597;28;20037;-80
2022/11/21 01:56:39;;;;;;;20.83;9.05;;;;;;;;;;5020515;28;20479;-79
2022/11/21 01:59:10;;;;;;;23.60;9.35;;;;;;;;;;5019763;28;20042;-79
2022/11/21 02:01:36;;;;;;;21.42;8.18;;;;;;;;;;5019454;28;20021;-80
2022/11/21 02:04:03;;;;;;;26.27;9.85;;;;;;;;;;5019707;28;20026;-80
2022/11/21 02:06:30;;;;;;;18.60;7.93;;;;;;;;;;5001059;28;20394;-78
2022/11/21 02:08:59;;;;;;;20.67;8.98;;;;;;;;;;5019136;28;20022;-79
2022/11/21 02:11:39;;;;;;;24.70;9.38;;;;;;;;;;5018380;28;20491;-79
2022/11/21 02:14:05;;;;;;;19.80;9.05;;;;;;;;;;5001415;28;20475;-79
2022/11/21 02:16:31;;;;;;;17.08;7.35;;;;;;;;;;5018878;28;20034;-79
2022/11/21 02:18:57;;;;;;;20.98;8.95;;;;;;;;;;5018385;28;20076;-80
2022/11/21 02:21:48;;;;;;;21.63;9.52;;;;;;;;;;5019047;28;20033;-80
2022/11/21 02:24:21;;;;;;;20.60;8.35;;;;;;;;;;5012201;28;20041;-81
2022/11/21 02:26:47;;;;;;;22.13;9.00;;;;;;;;;;5018687;28;20026;-81
2022/11/21 02:29:14;;;;;;;19.90;9.27;;;;;;;;;;5018530;28;20045;-82
2022/11/21 02:31:39;;;;;;;18.38;8.73;;;;;;;;;;5019575;28;20030;-81
2022/11/21 02:34:05;;;;;;;22.98;9.43;;;;;;;;;;5018792;28;20165;-80
2022/11/21 02:36:37;;;;;;;19.58;8.48;;;;;;;;;;5018526;28;20041;-81
2022/11/21 02:39:05;;;;;;;22.17;9.10;;;;;;;;;;5001361;28;20033;-81
2022/11/21 02:41:33;;;;;;;19.75;8.45;;;;;;;;;;5018789;28;20022;-80
2022/11/21 02:44:05;;;;;;;20.33;8.68;;;;;;;;;;5001096;28;20045;-82
2022/11/21 02:46:33;;;;;;;18.20;8.15;;;;;;;;;;5018990;28;20030;-83
2022/11/21 02:48:59;;;;;;;23.15;9.25;;;;;;;;;;5018254;28;20026;-81
2022/11/21 02:51:24;;;;;;;19.00;8.30;;;;;;;;;;5001058;28;20118;-81
2022/11/21 02:53:50;;;;;;;17.98;8.25;;;;;;;;;;5000117;28;20536;-81
2022/11/21 02:56:15;;;;;;;22.60;8.63;;;;;;;;;;5017802;28;20022;-82
2022/11/21 02:58:40;;;;;;;17.15;7.72;;;;;;;;;;5017513;28;20060;-82
2022/11/21 03:01:05;;;;;;;23.10;8.80;;;;;;;;;;5017227;28;20503;-80
2022/11/21 03:03:31;;;;;;;16.73;7.97;;;;;;;;;;5000825;28;20034;-82
2022/11/21 03:05:56;;;;;;;21.13;8.73;;;;;;;;;;4998610;28;20022;-82
2022/11/21 03:08:21;;;;;;;18.77;8.20;;;;;;;;;;5018844;28;20036;-82
2022/11/21 03:10:46;;;;;;;17.33;7.90;;;;;;;;;;5017999;28;20059;-82
2022/11/21 03:13:12;;;;;;;20.75;8.77;;;;;;;;;;5000348;28;20034;-82
2022/11/21 03:15:37;;;;;;;19.27;8.38;;;;;;;;;;5018624;28;20545;-82
2022/11/21 03:18:03;;;;;;;23.30;8.95;;;;;;;;;;5018247;28;20032;-82
2022/11/21 03:20:29;;;;;;;18.65;7.63;;;;;;;;;;5017843;28;20036;-81
2022/11/21 03:22:55;;;;;;;20.38;7.32;;;;;;;;;;5017842;28;20029;-82
2022/11/21 03:25:20;;;;;;;17.13;7.15;;;;;;;;;;5018036;28;20056;-81
2022/11/21 03:27:45;;;;;;;15.57;7.25;;;;;;;;;;5017443;28;20112;-82
2022/11/21 03:30:11;;;;;;;18.95;7.25;;;;;;;;;;5000515;28;20022;-81
2022/11/21 03:32:36;;;;;;;17.80;7.50;;;;;;;;;;5017329;28;20493;-80
2022/11/21 03:35:02;;;;;;;17.80;6.68;;;;;;;;;;5016648;28;20032;-79
2022/11/21 03:37:27;;;;;;;14.20;7.00;;;;;;;;;;4998577;28;20026;-81
2022/11/21 03:39:52;;;;;;;15.50;6.75;;;;;;;;;;5016645;28;20064;-80
2022/11/21 03:42:18;;;;;;;17.83;6.88;;;;;;;;;;5017270;28;20030;-79
2022/11/21 03:44:43;;;;;;;16.70;7.15;;;;;;;;;;4999327;28;20191;-81
2022/11/21 03:47:08;;;;;;;14.73;6.57;;;;;;;;;;5016619;28;20387;-79
2022/11/21 03:49:33;;;;;;;15.27;6.28;;;;;;;;;;5017065;28;20037;-81
2022/11/21 03:51:59;;;;;;;14.60;5.93;;;;;;;;;;5017028;28;20030;-80
2022/11/21 03:54:24;;;;;;;14.13;6.25;;;;;;;;;;5016822;28;20058;-80
2022/11/21 03:56:49;;;;;;;13.48;5.85;;;;;;;;;;5016648;28;20387;-79
2022/11/21 03:59:14;;;;;;;14.07;5.95;;;;;;;;;;5016034;28;20156;-80
2022/11/21 04:01:40;;;;;;;14.25;6.68;;;;;;;;;;5016208;28;20045;-81
2022/11/21 04:04:05;;;;;;;11.98;5.70;;;;;;;;;;4998614;28;20072;-80
2022/11/21 04:06:30;;;;;;;11.18;5.38;;;;;;;;;;4999318;28;20026;-81
2022/11/21 04:08:56;;;;;;;11.43;5.68;;;;;;;;;;5016727;28;20105;-80
2022/11/21 04:11:23;;;;;;;11.52;6.07;;;;;;;;;;4998698;28;20033;-81
2022/11/21 04:13:48;;;;;;;11.85;5.38;;;;;;;;;;5015071;28;20041;-80
2022/11/21 04:16:14;;;;;;;11.18;5.25;;;;;;;;;;5015152;28;20025;-80
2022/11/21 04:18:39;;;;;;;14.25;5.15;;;;;;;;;;4997692;28;20079;-80
2022/11/21 04:21:06;;;;;;;12.30;5.45;;;;;;;;;;5015618;28;20033;-81
2022/11/21 04:23:32;;;;;;;10.27;4.82;;;;;;;;;;5015385;28;20030;-81
2022/11/21 04:25:58;;;;;;;12.27;4.78;;;;;;;;;;5015270;28;20037;-81
2022/11/21 04:28:24;;;;;;;9.57;4.63;;;;;;;;;;5016195;28;20160;-78
2022/11/21 04:30:50;;;;;;;9.18;4.22;;;;;;;;;;5016131;28;20033;-80
2022/11/21 04:33:16;;;;;;;8.60;4.55;;;;;;;;;;5016435;28;20026;-81
2022/11/21 04:35:43;;;;;;;9.82;3.92;;;;;;;;;;5016920;28;20025;-81
2022/11/21 04:38:09;;;;;;;8.25;4.13;;;;;;;;;;5017290;28;20038;-80
2022/11/21 04:40:35;;;;;;;9.05;4.97;;;;;;;;;;5016825;28;20025;-82
2022/11/21 04:43:01;;;;;;;8.77;4.72;;;;;;;;;;5017346;28;20495;-81
2022/11/21 04:45:26;;;;;;;8.65;4.50;;;;;;;;;;5016679;28;20037;-80
2022/11/21 04:47:51;;;;;;;9.73;4.70;;;;;;;;;;5016998;28;20614;-81
2022/11/21 04:50:17;;;;;;;11.02;5.82;;;;;;;;;;5017335;28;20480;-80
2022/11/21 04:52:49;;;;;;;9.00;5.25;;;;;;;;;;5016712;28;20155;-81
2022/11/21 04:55:14;;;;;;;13.40;6.15;;;;;;;;;;5016763;28;20030;-79
2022/11/21 04:57:39;;;;;;;10.95;5.72;;;;;;;;;;5017387;28;20032;-81
2022/11/21 05:00:05;;;;;;;10.70;5.78;;;;;;;;;;4999277;28;20057;-79
2022/11/21 05:02:31;;;;;;;10.45;5.90;;;;;;;;;;5015934;28;20018;-81
2022/11/21 05:04:57;;;;;;;12.73;5.93;;;;;;;;;;5017157;28;20026;-80
2022/11/21 05:07:22;;;;;;;12.35;5.97;;;;;;;;;;5018579;28;20045;-80
2022/11/21 05:09:47;;;;;;;12.65;6.13;;;;;;;;;;5017916;28;20036;-81
2022/11/21 05:14:56;;;;;;;12.63;6.22;;;;;;;;;;5017477;28;20025;-80
2022/11/21 05:17:22;;;;;;;13.60;6.57;;;;;;;;;;4999504;28;20026;-80
2022/11/21 05:19:47;;;;;;;14.50;7.18;;;;;;;;;;5017103;28;20033;-81
2022/11/21 05:22:12;;;;;;;13.13;6.78;;;;;;;;;;4999201;28;20033;-83
2022/11/21 05:24:38;;;;;;;14.55;6.97;;;;;;;;;;5016538;28;20579;-81
2022/11/21 05:27:04;;;;;;;15.10;7.00;;;;;;;;;;5016352;28;20029;-80
2022/11/21 05:29:29;;;;;;;12.00;6.20;;;;;;;;;;5016620;28;20029;-81
2022/11/21 05:31:54;;;;;;;14.43;6.60;;;;;;;;;;5016672;28;20029;-82
2022/11/21 05:34:20;;;;;;;15.40;7.63;;;;;;;;;;4999631;28;20026;-81
2022/11/21 05:36:45;;;;;;;17.15;7.78;;;;;;;;;;5016365;28;20034;-81
2022/11/21 05:39:10;;;;;;;20.08;9.80;;;;;;;;;;5016592;28;20022;-81
2022/11/21 05:41:35;;;;;;;24.13;11.63;;;;;;;;;;5017071;28;20028;-82
2022/11/21 05:44:01;;;;;;;20.45;9.77;;;;;;;;;;5016904;28;20022;-82
2022/11/21 05:46:26;;;;;;;26.27;12.55;;;;;;;;;;5017230;28;20038;-80
2022/11/21 05:48:53;;;;;;;26.38;12.05;;;;;;;;;;5017491;28;20022;-81
2022/11/21 05:51:19;;;;;;;31.02;12.15;;;;;;;;;;5016619;28;20025;-81
2022/11/21 05:53:45;;;;;;;21.63;10.52;;;;;;;;;;4998715;28;20018;-82
2022/11/21 05:56:13;;;;;;;27.10;10.82;;;;;;;;;;4998659;28;20022;-83
2022/11/21 05:58:39;;;;;;;25.33;11.15;;;;;;;;;;5016497;28;20073;-82
2022/11/21 06:01:05;;;;;;;23.27;10.55;;;;;;;;;;5016676;28;20026;-80
2022/11/21 06:03:34;;;;;;;21.75;9.57;;;;;;;;;;5016313;28;20106;-81
2022/11/21 06:06:10;;;;;;;20.52;9.57;;;;;;;;;;5017382;28;20491;-82
2022/11/21 06:08:46;;;;;;;18.77;8.65;;;;;;;;;;4999968;28;20472;-82
2022/11/21 06:11:13;;;;;;;20.15;9.25;;;;;;;;;;5016442;28;20022;-81
2022/11/21 06:13:39;;;;;;;14.90;7.10;;;;;;;;;;5016610;28;20503;-79
2022/11/21 06:16:10;;;;;;;17.15;7.95;;;;;;;;;;5016234;28;20030;-80
2022/11/21 06:18:37;;;;;;;16.35;7.93;;;;;;;;;;5016737;28;20026;-80
2022/11/21 06:21:08;;;;;;;17.48;8.05;;;;;;;;;;4998857;28;20084;-80
2022/11/21 06:23:34;;;;;;;18.80;8.55;;;;;;;;;;5015735;28;20045;-82
2022/11/21 06:26:02;;;;;;;15.77;7.70;;;;;;;;;;4998098;28;20022;-81
2022/11/21 06:28:36;;;;;;;17.10;7.80;;;;;;;;;;5016091;28;20026;-79
2022/11/21 06:31:07;;;;;;;15.23;7.82;;;;;;;;;;5016068;28;20076;-81
2022/11/21 06:33:34;;;;;;;16.50;7.82;;;;;;;;;;5016755;28;20456;-80
2022/11/21 06:36:04;;;;;;;15.02;7.55;;;;;;;;;;4999089;28;20029;-81
2022/11/21 06:38:30;;;;;;;19.13;9.05;;;;;;;;;;5015625;28;20441;-80
2022/11/21 06:40:55;;;;;;;19.08;8.77;;;;;;;;;;5019426;28;20034;-79
2022/11/21 06:43:20;;;;;;;18.58;8.13;;;;;;;;;;5001501;28;20026;-80
2022/11/21 06:45:45;;;;;;;16.33;8.35;;;;;;;;;;5018678;28;20061;-80
2022/11/21 06:48:11;;;;;;;16.35;8.10;;;;;;;;;;5019852;28;20379;-80
2022/11/21 06:50:37;;;;;;;18.77;8.60;;;;;;;;;;5019287;28;20116;-81
2022/11/21 06:53:03;;;;;;;17.92;9.13;;;;;;;;;;5018857;28;20013;-80
2022/11/21 06:55:30;;;;;;;19.17;8.48;;;;;;;;;;5019022;28;20076;-81
2022/11/21 06:57:59;;;;;;;18.50;8.75;;;;;;;;;;5019047;28;20034;-80
2022/11/21 07:00:26;;;;;;;15.95;8.05;;;;;;;;;;5001277;28;20491;-80
2022/11/21 07:02:52;;;;;;;17.00;8.90;;;;;;;;;;5000885;28;20022;-80
2022/11/21 07:05:17;;;;;;;17.77;8.65;;;;;;;;;;5000820;28;20117;-80
2022/11/21 07:07:42;;;;;;;22.48;8.38;;;;;;;;;;5017770;28;20037;-77
2022/11/21 07:10:08;;;;;;;17.77;8.13;;;;;;;;;;5000052;28;20629;-77
2022/11/21 07:15:18;;;;;;;16.58;6.55;;;;;;;;;;5015609;28;20025;-77
2022/11/21 07:17:43;;;;;;;12.82;6.38;;;;;;;;;;5016156;28;20387;-78
2022/11/21 07:20:09;;;;;;;14.55;6.10;;;;;;;;;;4999396;28;20025;-77
2022/11/21 07:22:34;;;;;;;16.08;7.32;;;;;;;;;;5015301;28;20030;-76
2022/11/21 07:25:00;;;;;;;13.50;6.70;;;;;;;;;;5015581;28;20022;-77
2022/11/21 07:27:25;;;;;;;15.75;6.57;;;;;;;;;;5015115;28;20372;-76
2022/11/21 07:29:50;;;;;;;15.38;6.65;;;;;;;;;;4997503;28;20036;-75
2022/11/21 07:32:16;;;;;;;14.00;6.45;;;;;;;;;;5014941;28;20084;-77
2022/11/21 07:34:41;;;;;;;13.73;6.82;;;;;;;;;;5015859;28;20121;-77
2022/11/21 07:37:06;;;;;;;13.35;6.82;;;;;;;;;;5015528;28;20034;-78
2022/11/21 07:39:32;;;;;;;14.10;6.82;;;;;;;;;;5014551;28;20048;-76
2022/11/21 07:41:57;;;;;;;15.27;7.57;;;;;;;;;;4997599;28;20025;-75
2022/11/21 07:44:22;;;;;;;17.20;6.35;;;;;;;;;;5015165;28;20030;-75
2022/11/21 07:46:47;;;;;;;12.60;6.82;;;;;;;;;;5014308;28;20387;-75
2022/11/21 07:49:13;;;;;;;15.43;7.88;;;;;;;;;;4998799;28;20076;-80
2022/11/21 07:51:38;;;;;;;15.35;7.78;;;;;;;;;;4999190;28;20044;-76
2022/11/21 07:54:03;;;;;;;10.88;6.07;;;;;;;;;;5019125;28;20026;-80
2022/11/21 07:56:29;;;;;;;16.08;8.05;;;;;;;;;;5018108;28;20030;-80
2022/11/21 07:58:54;;;;;;;15.02;8.05;;;;;;;;;;4999816;28;20040;-79
2022/11/21 08:01:20;;;;;;;14.25;7.53;;;;;;;;;;5018795;28;20118;-78
2022/11/21 08:03:45;;;;;;;19.23;8.82;;;;;;;;;;5017134;28;20522;-79
2022/11/21 08:06:12;;;;;;;16.13;8.02;;;;;;;;;;4999987;28;20136;-80
2022/11/21 08:08:37;;;;;;;17.27;8.27;;;;;;;;;;5019299;28;20183;-79
2022/11/21 08:11:04;;;;;;;15.43;8.30;;;;;;;;;;5019846;28;20025;-79
2022/11/21 08:13:29;;;;;;;15.73;8.05;;;;;;;;;;5019673;28;20068;-79
2022/11/21 08:15:55;;;;;;;10.25;5.60;;;;;;;;;;5019130;28;20026;-77
2022/11/21 08:18:20;;;;;;;16.25;8.25;;;;;;;;;;5020455;28;20052;-78
2022/11/21 08:20:45;;;;;;;19.00;9.02;;;;;;;;;;5002548;28;20426;-79
2022/11/21 08:23:11;;;;;;;21.83;9.57;;;;;;;;;;5018027;28;20034;-80
2022/11/21 08:25:37;;;;;;;17.17;8.30;;;;;;;;;;5018794;28;20022;-79
2022/11/21 08:28:03;;;;;;;19.25;8.93;;;;;;;;;;5019649;28;20058;-79
2022/11/21 08:30:29;;;;;;;19.40;8.93;;;;;;;;;;5019001;28;20033;-79
2022/11/21 08:32:56;;;;;;;14.52;7.57;;;;;;;;;;5001548;28;20498;-79
2022/11/21 08:35:22;;;;;;;20.98;9.77;;;;;;;;;;5000801;28;20470;-80
2022/11/21 08:37:47;;;;;;;17.55;8.93;;;;;;;;;;5017911;28;20061;-80
2022/11/21 08:40:12;;;;;;;15.93;8.45;;;;;;;;;;5018241;28;20034;-78
2022/11/21 08:42:37;;;;;;;11.45;5.70;;;;;;;;;;5017060;28;20379;-78
2022/11/21 08:45:04;;;;;;;17.83;8.48;;;;;;;;;;5017860;28;20049;-77
2022/11/21 08:47:32;;;;;;;10.05;5.38;;;;;;;;;;5017998;28;20041;-80
2022/11/21 08:49:57;;;;;;;12.35;6.35;;;;;;;;;;5017630;28;20030;-78
2022/11/21 08:52:22;;;;;;;15.52;7.57;;;;;;;;;;5019568;28;20390;-79
2022/11/21 08:54:48;;;;;;;18.27;8.90;;;;;;;;;;5019152;28;20022;-79
2022/11/21 08:57:13;;;;;;;17.55;8.20;;;;;;;;;;5020105;28;20037;-79
2022/11/21 08:59:39;;;;;;;14.43;7.75;;;;;;;;;;5002084;28;20080;-80
2022/11/21 09:02:04;;;;;;;17.58;8.95;;;;;;;;;;5001963;28;20036;-79
2022/11/21 09:04:29;;;;;;;20.80;10.20;;;;;;;;;;5017838;28;20037;-79
2022/11/21 09:06:54;;;;;;;10.48;5.05;;;;;;;;;;5018794;28;20471;-79
2022/11/21 09:09:20;;;;;;;14.18;7.65;;;;;;;;;;5018085;28;20021;-78
2022/11/21 09:11:45;;;;;;;14.20;7.13;;;;;;;;;;5018217;28;20028;-79
2022/11/21 09:19:39;;;;;;;18.05;9.05;;;;;;;;;;5017410;28;20099;-77
2022/11/21 09:22:04;;;;;;;15.80;8.40;;;;;;;;;;5017369;28;20025;-78
2022/11/21 09:24:29;;;;;;;20.23;9.43;;;;;;;;;;5017334;28;20030;-80
2022/11/21 09:26:54;;;;;;;14.68;7.05;;;;;;;;;;4999638;28;20037;-79
2022/11/21 09:29:20;;;;;;;18.58;8.57;;;;;;;;;;5017349;28;20017;-78
2022/11/21 09:31:45;;;;;;;18.48;9.18;;;;;;;;;;5017840;28;20029;-78
2022/11/21 09:34:10;;;;;;;12.05;6.32;;;;;;;;;;5017976;28;20022;-79
2022/11/21 09:36:36;;;;;;;20.17;10.05;;;;;;;;;;4999913;28;20470;-78
2022/11/21 09:39:02;;;;;;;18.83;9.85;;;;;;;;;;5017786;28;20041;-79
2022/11/21 09:41:51;;;;;;;20.23;9.95;;;;;;;;;;4999524;28;20152;-79
2022/11/21 09:44:54;;;;;;;20.35;8.98;;;;;;;;;;5017380;28;20057;-80
2022/11/21 09:47:29;;;;;;;15.40;7.80;;;;;;;;;;5017512;28;20026;-78
2022/11/21 09:50:01;;;;;;;20.88;8.68;;;;;;;;;;5017597;28;20034;-78
2022/11/21 09:52:34;;;;;;;23.83;11.07;;;;;;;;;;5016371;28;20025;-79
2022/11/21 09:55:04;;;;;;;23.23;10.02;;;;;;;;;;4999276;28;20052;-79
2022/11/21 09:57:35;;;;;;;17.30;8.68;;;;;;;;;;5016854;28;20022;-79
2022/11/21 10:00:03;;;;;;;21.52;9.48;;;;;;;;;;5018749;28;20076;-79
2022/11/21 10:02:28;;;;;;;20.73;8.50;;;;;;;;;;5017129;28;20065;-79
2022/11/21 10:04:59;;;;;;;24.23;10.63;;;;;;;;;;5016687;28;20034;-79
2022/11/21 10:07:28;;;;;;;19.77;9.07;;;;;;;;;;5017203;28;20034;-80
2022/11/21 10:10:12;;;;;;;21.42;9.65;;;;;;;;;;5017253;28;20084;-79
2022/11/21 10:13:09;;;;;;;22.27;9.75;;;;;;;;;;5017785;28;20439;-79
2022/11/21 10:15:59;;;;;;;20.98;9.43;;;;;;;;;;5019287;28;20049;-82
2022/11/21 10:18:52;;;;;;;18.77;8.93;;;;;;;;;;5020731;28;20504;-79
2022/11/21 10:21:43;;;;;;;23.35;10.57;;;;;;;;;;5021476;28;20471;-79
2022/11/21 10:24:20;;;;;;;20.42;10.95;;;;;;;;;;5020238;28;20033;-77
2022/11/21 10:26:52;;;;;;;19.58;9.20;;;;;;;;;;5020463;28;20541;-79
2022/11/21 10:29:37;;;;;;;21.05;10.00;;;;;;;;;;5002553;28;20406;-80
2022/11/21 10:32:27;;;;;;;23.20;11.15;;;;;;;;;;5020099;28;20067;-79
2022/11/21 10:34:57;;;;;;;22.60;10.75;;;;;;;;;;5000798;28;20045;-78
2022/11/21 10:37:44;;;;;;;26.10;11.38;;;;;;;;;;5296015;23;20047;-77
2022/11/21 10:40:21;;;;;;;23.20;9.98;;;;;;;;;;4996824;28;20038;-77
2022/11/21 10:42:53;;;;;;;21.08;10.27;;;;;;;;;;4980119;28;20018;-78
2022/11/21 10:45:19;;;;;;;22.17;11.02;;;;;;;;;;4997863;28;20034;-77
2022/11/21 10:47:46;;;;;;;23.77;10.60;;;;;;;;;;4998993;28;20371;-78
2022/11/21 10:50:21;;;;;;;19.77;10.32;;;;;;;;;;4998589;28;20037;-77
2022/11/21 10:52:49;;;;;;;17.10;8.50;;;;;;;;;;4998275;28;20117;-77
2022/11/21 10:55:16;;;;;;;21.00;10.15;;;;;;;;;;4996219;28;20026;-77
2022/11/21 10:57:45;;;;;;;19.90;8.77;;;;;;;;;;4996253;28;20023;-76
2022/11/21 11:00:11;;;;;;;20.17;10.13;;;;;;;;;;4979024;28;20026;-78
2022/11/21 11:02:40;;;;;;;26.60;11.05;;;;;;;;;;4980253;28;20022;-78
2022/11/21 11:05:21;;;;;;;22.95;10.68;;;;;;;;;;4999470;28;20109;-77
2022/11/21 11:08:00;;;;;;;21.35;9.70;;;;;;;;;;4980873;28;20026;-78
2022/11/21 11:10:26;;;;;;;20.55;10.18;;;;;;;;;;4998225;28;20097;-78
2022/11/21 11:15:38;;;;;;;23.30;10.38;;;;;;;;;;4998398;28;20045;-78
2022/11/21 11:18:05;;;;;;;22.80;10.98;;;;;;;;;;4997427;28;20049;-78
2022/11/21 11:20:36;;;;;;;18.63;9.90;;;;;;;;;;4963589;28;20050;-78
2022/11/21 11:23:24;;;;;;;23.45;10.48;;;;;;;;;;4997128;28;20030;-77
2022/11/21 11:25:54;;;;;;;20.17;9.50;;;;;;;;;;4996584;28;20041;-78
2022/11/21 11:28:22;;;;;;;20.45;9.48;;;;;;;;;;4996705;28;20403;-78
2022/11/21 11:30:48;;;;;;;20.92;9.77;;;;;;;;;;4997191;28;20093;-78
2022/11/21 11:33:39;;;;;;;15.27;7.45;;;;;;;;;;4997661;28;20104;-77
2022/11/21 11:36:35;;;;;;;23.77;9.85;;;;;;;;;;4980211;28;20026;-79
2022/11/21 11:39:12;;;;;;;21.27;10.07;;;;;;;;;;4990485;28;20042;-79
2022/11/21 11:48:00;;;;;;;15.98;7.78;;;;;;;;;;4997322;28;20046;-78
2022/11/21 11:50:33;;;;;;;12.63;6.47;;;;;;;;;;4979132;28;20109;-78
2022/11/21 11:53:18;;;;;;;20.65;8.85;;;;;;;;;;4997634;28;20522;-80
2022/11/21 11:55:43;;;;;;;20.02;9.15;;;;;;;;;;4978329;28;20057;-77
2022/11/21 11:58:21;;;;;;;19.83;9.15;;;;;;;;;;4996173;28;20473;-79
2022/11/21 12:01:17;;;;;;;18.45;9.82;;;;;;;;;;4995747;28;20027;-77
2022/11/21 12:04:04;;;;;;;19.83;8.90;;;;;;;;;;4977311;28;20027;-77
2022/11/21 12:06:34;;;;;;;16.92;8.27;;;;;;;;;;4978436;28;20035;-80
2022/11/21 12:09:22;;;;;;;18.55;9.13;;;;;;;;;;4996157;28;20019;-76
2022/11/21 12:12:07;;;;;;;18.67;9.23;;;;;;;;;;4978583;28;20109;-78
2022/11/21 12:15:47;;;;;;;18.92;8.95;;;;;;;;;;4995038;28;20432;-77
2022/11/21 12:17:57;;;;;;;14.93;7.65;;;;;;;;;;4994991;28;20031;-78
2022/11/21 12:20:28;;;;;;;14.77;7.97;;;;;;;;;;4995345;28;20022;-77
2022/11/21 12:22:54;;;;;;;19.42;8.73;;;;;;;;;;4993444;28;20022;-77
2022/11/21 12:25:26;;;;;;;17.42;8.43;;;;;;;;;;4994577;28;20030;-77
2022/11/21 12:27:54;;;;;;;17.95;8.48;;;;;;;;;;4997882;28;20037;-78
2022/11/21 12:30:55;;;;;;;14.35;6.28;;;;;;;;;;4995423;28;20474;-77
2022/11/21 12:33:22;;;;;;;13.93;7.18;;;;;;;;;;4979784;28;20037;-79
2022/11/21 12:36:00;;;;;;;16.02;7.95;;;;;;;;;;4978035;28;20026;-78
2022/11/21 12:38:34;;;;;;;15.55;8.05;;;;;;;;;;4996017;28;20030;-77
2022/11/21 12:44:30;;;;;;;16.13;8.20;;;;;;;;;;4996030;28;20169;-78
2022/11/21 12:47:28;;;;;;;16.98;8.23;;;;;;;;;;4978427;28;20030;-78
2022/11/21 12:55:56;;;;;;;18.05;8.48;;;;;;;;;;4997172;28;20029;-78
2022/11/21 12:58:37;;;;;;;17.75;9.15;;;;;;;;;;4995600;28;20033;-77
2022/11/21 13:01:33;;;;;;;17.77;8.15;;;;;;;;;;4995353;28;20092;-79
2022/11/21 13:04:07;;;;;;;14.98;8.23;;;;;;;;;;4997392;28;20454;-80
2022/11/21 13:06:38;;;;;;;16.38;7.90;;;;;;;;;;4996410;28;20081;-79
2022/11/21 13:09:08;;;;;;;21.13;9.05;;;;;;;;;;4996699;28;20038;-78
2022/11/21 13:11:58;;;;;;;18.45;8.73;;;;;;;;;;4996382;28;20060;-78
2022/11/21 13:14:39;;;;;;;16.27;8.40;;;;;;;;;;4995838;28;20430;-78
2022/11/21 13:17:22;;;;;;;16.92;8.70;;;;;;;;;;4996034;28;20468;-80
2022/11/21 13:20:13;;;;;;;19.67;9.80;;;;;;;;;;4996121;28;20490;-79
2022/11/21 13:22:39;;;;;;;18.60;9.65;;;;;;;;;;4996006;28;20030;-78
2022/11/21 13:25:39;;;;;;;19.02;8.88;;;;;;;;;;4995083;28;20045;-78
2022/11/21 13:28:10;;;;;;;18.73;9.18;;;;;;;;;;4995415;28;20030;-78
2022/11/21 13:30:46;;;;;;;16.55;9.05;;;;;;;;;;4995018;28;20041;-79
2022/11/21 13:33:34;;;;;;;19.88;9.35;;;;;;;;;;4996529;28;20379;-78
2022/11/21 13:36:12;;;;;;;18.27;9.05;;;;;;;;;;4995808;28;20517;-78
2022/11/21 13:39:01;;;;;;;20.35;9.70;;;;;;;;;;4995196;28;20037;-79
2022/11/21 13:44:32;;;;;;;19.90;9.13;;;;;;;;;;4996995;28;20114;-78
2022/11/21 13:47:25;;;;;;;26.40;8.57;;;;;;;;;;4995777;28;20038;-78
2022/11/21 13:50:18;;;;;;;20.13;8.75;;;;;;;;;;4996721;28;20050;-78
2022/11/21 13:52:58;;;;;;;19.42;8.40;;;;;;;;;;4999929;28;20026;-78
2022/11/21 13:55:41;;;;;;;15.00;7.85;;;;;;;;;;4999389;28;20022;-80
2022/11/21 13:58:39;;;;;;;21.33;9.40;;;;;;;;;;5000289;28;20026;-80
2022/11/21 14:01:15;;;;;;;19.45;9.52;;;;;;;;;;4999810;28;20022;-79
2022/11/21 14:04:03;;;;;;;19.35;8.88;;;;;;;;;;5000617;28;20026;-78
2022/11/21 14:06:42;;;;;;;18.30;8.98;;;;;;;;;;4999809;28;20491;-78
2022/11/21 14:09:34;;;;;;;17.45;8.27;;;;;;;;;;4983188;28;20493;-79
2022/11/21 14:12:03;;;;;;;15.88;8.32;;;;;;;;;;4999516;28;20038;-79
2022/11/21 14:14:33;;;;;;;20.33;9.70;;;;;;;;;;4998569;28;20141;-79
2022/11/21 14:17:29;;;;;;;21.27;10.02;;;;;;;;;;4999566;28;20089;-77
2022/11/21 14:19:56;;;;;;;16.75;9.13;;;;;;;;;;4999102;28;20038;-79
2022/11/21 14:22:39;;;;;;;15.75;8.13;;;;;;;;;;4999220;28;20030;-79
2022/11/21 14:25:08;;;;;;;21.60;9.47;;;;;;;;;;4998985;28;20018;-80
2022/11/21 14:27:38;;;;;;;22.67;9.93;;;;;;;;;;4998703;28;20790;-79
2022/11/21 14:30:03;;;;;;;21.52;9.73;;;;;;;;;;4981322;28;20522;-78
2022/11/21 14:32:30;;;;;;;22.25;10.48;;;;;;;;;;4998761;28;20030;-78
2022/11/21 14:35:10;;;;;;;22.83;10.80;;;;;;;;;;4997894;28;20023;-78
2022/11/21 14:37:39;;;;;;;21.30;9.23;;;;;;;;;;4997936;28;20038;-79
2022/11/21 14:40:08;;;;;;;21.70;9.50;;;;;;;;;;4998672;28;20096;-78
2022/11/21 14:42:35;;;;;;;23.17;10.23;;;;;;;;;;4998073;28;20036;-78
2022/11/21 14:45:16;;;;;;;24.00;10.75;;;;;;;;;;4997756;28;20538;-79
2022/11/21 14:47:46;;;;;;;23.33;10.40;;;;;;;;;;4997088;28;20549;-80
2022/11/21 14:50:33;;;;;;;22.83;11.43;;;;;;;;;;4997313;28;20022;-79
2022/11/21 14:53:00;;;;;;;21.83;10.82;;;;;;;;;;4997677;28;20030;-78
2022/11/21 14:55:30;;;;;;;26.58;11.70;;;;;;;;;;4997671;28;20054;-77
2022/11/21 14:57:58;;;;;;;23.45;10.13;;;;;;;;;;4997854;28;20030;-78
2022/11/21 15:00:25;;;;;;;26.83;11.10;;;;;;;;;;4980873;28;20026;-77
2022/11/21 15:02:58;;;;;;;19.67;10.00;;;;;;;;;;4982532;28;20019;-76
2022/11/21 15:05:33;;;;;;;22.67;11.18;;;;;;;;;;4997232;28;20026;-78
2022/11/21 15:07:59;;;;;;;22.35;10.32;;;;;;;;;;4998407;28;20034;-76
2022/11/21 15:10:31;;;;;;;20.77;10.48;;;;;;;;;;4996594;28;20108;-77
2022/11/21 15:13:01;;;;;;;25.33;11.13;;;;;;;;;;4996316;28;20104;-77
2022/11/21 15:15:33;;;;;;;24.98;11.10;;;;;;;;;;4996675;28;20058;-79